Time;durP1;ratioP1;P1;durP2;ratioP2;P2;SDS_P1;SDS_P2;PMS_P1;PMS_P2;Temp;Humidity;BMP_temperature;BMP_pressure;BME280_temperature;BME280_humidity;BME280_pressure;Samples;Min_cycle;Max_cycle;Signal;HPM_P1;HPM_P2
2023/01/03 00:01:21;;;;;;;2.00;1.27;;;11.10;1.00;;;;;;4964040;28;20770;-64
2023/01/03 00:03:47;;;;;;;2.20;1.50;;;11.10;1.00;;;;;;4965641;28;20496;-63
2023/01/03 00:06:24;;;;;;;2.03;1.30;;;11.10;99.90;;;;;;4970783;28;20520;-66
2023/01/03 00:08:51;;;;;;;6.83;1.90;;;10.90;99.90;;;;;;4965071;28;20523;-66
2023/01/03 00:12:22;;;;;;;8.13;1.90;;;10.90;99.90;;;;;;4970232;28;20433;-66
2023/01/03 00:14:11;;;;;;;2.70;1.50;;;11.00;55.60;;;;;;4969904;28;20432;-66
2023/01/03 00:16:37;;;;;;;2.30;1.77;;;11.00;1.00;;;;;;4970656;28;21068;-66
2023/01/03 00:19:08;;;;;;;2.37;1.40;;;11.00;1.00;;;;;;4970743;28;20444;-65
2023/01/03 00:21:34;;;;;;;6.83;1.83;;;10.80;99.90;;;;;;4970581;28;20491;-66
2023/01/03 00:24:00;;;;;;;9.67;2.27;;;10.70;99.90;;;;;;4970933;28;20471;-63
2023/01/03 00:26:27;;;;;;;3.47;1.57;;;10.90;44.80;;;;;;4970546;28;20437;-66
2023/01/03 00:28:52;;;;;;;1.80;1.30;;;10.90;39.90;;;;;;4971608;28;20839;-65
2023/01/03 00:31:18;;;;;;;2.27;1.60;;;10.90;1.00;;;;;;4970196;28;20516;-65
2023/01/03 00:33:44;;;;;;;2.40;1.60;;;10.90;1.00;;;;;;4971370;28;20189;-65
2023/01/03 00:36:10;;;;;;;1.97;1.60;;;10.80;1.00;;;;;;4969987;28;20269;-65
2023/01/03 00:38:36;;;;;;;3.03;1.77;;;10.90;99.90;;;;;;4971197;28;20311;-65
2023/01/03 00:41:07;;;;;;;3.23;1.70;;;10.90;99.90;;;;;;4970810;28;20220;-65
2023/01/03 00:43:33;;;;;;;3.40;2.17;;;11.00;67.80;;;;;;4971016;28;20440;-65
2023/01/03 00:45:59;;;;;;;3.30;1.83;;;11.00;1.00;;;;;;4970720;28;20432;-65
2023/01/03 00:48:26;;;;;;;1.87;1.50;;;11.00;1.00;;;;;;4966540;28;20778;-65
2023/01/03 00:50:52;;;;;;;2.23;1.30;;;10.90;1.00;;;;;;4970348;28;20440;-65
2023/01/03 00:53:18;;;;;;;1.47;1.30;;;10.70;99.90;;;;;;4967676;28;20444;-64
2023/01/03 00:55:44;;;;;;;2.27;1.70;;;10.70;99.90;;;;;;4967328;28;20428;-65
2023/01/03 00:58:10;;;;;;;1.33;1.10;;;10.70;99.90;;;;;;4970945;28;20795;-66
2023/01/03 01:00:35;;;;;;;5.10;1.70;;;10.80;1.00;;;;;;4970725;28;20228;-64
2023/01/03 01:03:01;;;;;;;1.83;1.20;;;10.80;99.90;;;;;;4972219;28;20173;-66
2023/01/03 01:05:29;;;;;;;1.80;1.50;;;10.90;28.30;;;;;;4971541;28;20626;-66
2023/01/03 01:07:55;;;;;;;1.70;1.53;;;10.80;99.90;;;;;;4971350;28;20248;-66
2023/01/03 01:10:20;;;;;;;1.50;1.07;;;10.70;99.90;;;;;;4970992;28;20491;-66
2023/01/03 01:12:46;;;;;;;2.40;1.30;;;10.70;99.90;;;;;;4971090;28;20166;-65
2023/01/03 01:15:12;;;;;;;3.87;1.53;;;10.70;81.90;;;;;;4970765;28;20177;-66
2023/01/03 01:17:39;;;;;;;4.70;1.57;;;10.80;99.90;;;;;;4971524;28;20437;-65
2023/01/03 01:20:06;;;;;;;1.90;1.50;;;10.70;1.00;;;;;;4971201;28;20419;-66
2023/01/03 01:22:33;;;;;;;1.80;1.30;;;10.70;1.00;;;;;;4970702;28;20421;-65
2023/01/03 01:24:58;;;;;;;3.17;1.90;;;10.70;99.90;;;;;;4971252;28;20457;-65
2023/01/03 01:27:24;;;;;;;1.70;1.37;;;10.70;99.90;;;;;;4969690;28;20487;-66
2023/01/03 01:29:50;;;;;;;3.47;1.53;;;10.70;99.90;;;;;;4969809;28;20181;-66
2023/01/03 01:32:15;;;;;;;1.40;1.20;;;10.70;1.00;;;;;;4951634;28;20182;-66
2023/01/03 01:34:41;;;;;;;2.87;1.20;;;10.80;1.00;;;;;;4969516;28;20185;-65
2023/01/03 01:37:07;;;;;;;5.63;1.50;;;10.80;1.00;;;;;;4969511;28;20287;-66
2023/01/03 01:39:33;;;;;;;5.93;1.33;;;10.80;1.00;;;;;;4969910;28;20189;-65
2023/01/03 01:44:52;;;;;;;8.73;1.80;;;10.80;1.00;;;;;;4969463;28;20920;-63
2023/01/03 01:47:32;;;;;;;1.60;1.30;;;10.80;1.00;;;;;;4969872;28;20857;-65
2023/01/03 01:50:28;;;;;;;1.97;1.10;;;10.80;1.00;;;;;;4966630;28;20828;-64
2023/01/03 01:53:09;;;;;;;1.63;1.17;;;10.80;1.00;;;;;;4961151;28;20428;-65
2023/01/03 01:55:50;;;;;;;4.73;1.73;;;10.70;1.00;;;;;;4969355;28;20453;-67
2023/01/03 01:58:16;;;;;;;1.70;1.20;;;10.60;1.00;;;;;;4968799;28;20456;-66
2023/01/03 02:00:43;;;;;;;1.90;1.33;;;10.60;1.00;;;;;;4969385;28;20441;-64
2023/01/03 02:03:10;;;;;;;11.73;2.30;;;10.60;1.00;;;;;;4968860;28;20444;-64
2023/01/03 02:05:40;;;;;;;3.83;1.53;;;10.60;1.00;;;;;;4969979;28;20476;-63
2023/01/03 02:08:06;;;;;;;9.33;2.20;;;10.60;1.00;;;;;;4972884;28;20784;-65
2023/01/03 02:11:08;;;;;;;5.43;1.80;;;10.60;1.00;;;;;;4972800;28;20439;-63
2023/01/03 02:14:02;;;;;;;1.40;1.20;;;10.60;1.00;;;;;;4972760;28;20619;-64
2023/01/03 02:16:40;;;;;;;7.10;1.50;;;10.60;1.00;;;;;;4969015;28;20947;-64
2023/01/03 02:19:33;;;;;;;2.70;1.43;;;10.60;1.00;;;;;;4979911;28;20482;-64
2023/01/03 02:22:25;;;;;;;4.87;2.57;;;10.60;1.00;;;;;;4967053;28;20448;-64
2023/01/03 02:25:10;;;;;;;7.40;2.07;;;10.60;1.00;;;;;;4973331;28;20945;-67
2023/01/03 02:27:51;;;;;;;3.97;2.20;;;10.60;1.00;;;;;;4973098;28;20480;-67
2023/01/03 02:30:19;;;;;;;3.13;2.63;;;10.60;1.00;;;;;;4973577;28;20443;-65
2023/01/03 02:33:09;;;;;;;3.37;1.50;;;10.60;1.00;;;;;;4973317;28;20550;-64
2023/01/03 02:36:02;;;;;;;4.63;2.40;;;10.60;1.00;;;;;;4973392;28;20468;-64
2023/01/03 02:38:34;;;;;;;4.07;1.60;;;10.60;1.00;;;;;;4969699;28;20934;-65
2023/01/03 02:41:23;;;;;;;9.60;1.67;;;10.60;1.00;;;;;;4971823;28;20456;-65
2023/01/03 02:44:22;;;;;;;6.27;2.63;;;10.60;1.00;;;;;;4969734;28;20523;-65
2023/01/03 02:47:09;;;;;;;7.23;1.70;;;10.60;1.00;;;;;;4973785;28;20456;-65
2023/01/03 02:49:43;;;;;;;3.83;1.30;;;10.50;1.00;;;;;;4971443;28;20444;-66
2023/01/03 02:52:25;;;;;;;3.07;1.73;;;10.50;1.00;;;;;;4970714;28;20902;-66
2023/01/03 02:55:09;;;;;;;7.50;2.07;;;10.60;14.60;;;;;;4970476;28;20433;-66
2023/01/03 02:57:46;;;;;;;2.13;1.40;;;10.60;24.00;;;;;;4969659;28;20787;-67
2023/01/03 03:00:21;;;;;;;2.80;1.10;;;10.60;1.00;;;;;;4973264;28;20437;-66
2023/01/03 03:02:55;;;;;;;1.60;1.50;;;10.50;34.40;;;;;;4973710;28;20416;-66
2023/01/03 03:05:32;;;;;;;1.60;1.23;;;10.50;99.90;;;;;;4974145;28;20463;-66
2023/01/03 03:07:57;;;;;;;1.80;1.20;;;10.50;99.90;;;;;;4975115;28;20564;-66
2023/01/03 03:13:44;;;;;;;2.27;1.33;;;10.50;99.90;;;;;;4974249;28;20539;-66
2023/01/03 03:16:46;;;;;;;3.03;1.43;;;10.40;99.90;;;;;;4971247;28;20504;-66
2023/01/03 03:24:48;;;;;;;1.93;1.37;;;10.40;99.90;;;;;;4973793;28;20453;-66
2023/01/03 03:25:00;;;;;;;2.83;1.77;;;10.40;1.00;;;;;;4973487;28;20512;-65
2023/01/03 03:30:16;;;;;;;2.60;1.40;;;10.30;1.00;;;;;;4970562;28;20428;-66
2023/01/03 03:32:45;;;;;;;1.90;1.53;;;10.40;1.00;;;;;;4972019;28;20527;-66
2023/01/03 03:35:15;;;;;;;12.90;3.40;;;10.40;1.00;;;;;;4971612;28;20463;-65
2023/01/03 03:37:45;;;;;;;4.10;1.97;;;10.40;1.00;;;;;;4972447;28;20444;-65
2023/01/03 03:46:05;;;;;;;3.83;2.47;;;10.30;1.00;;;;;;4972522;28;20957;-65
2023/01/03 03:51:45;;;;;;;2.27;2.00;;;10.40;1.00;;;;;;4967844;28;20431;-64
2023/01/03 03:54:16;;;;;;;4.40;2.13;;;10.30;1.00;;;;;;4971385;28;20464;-65
2023/01/03 03:56:50;;;;;;;3.57;2.10;;;10.30;1.00;;;;;;4971902;28;20449;-66
2023/01/03 03:59:20;;;;;;;3.77;2.07;;;10.30;1.00;;;;;;4970026;28;20958;-65
2023/01/03 04:01:47;;;;;;;4.40;2.40;;;10.30;1.00;;;;;;4971056;28;20872;-66
2023/01/03 04:04:21;;;;;;;7.70;2.53;;;10.40;1.00;;;;;;4970058;28;20465;-66
2023/01/03 04:06:50;;;;;;;6.60;2.87;;;10.40;1.00;;;;;;4968938;28;20465;-66
2023/01/03 04:09:16;;;;;;;3.50;2.40;;;10.40;1.00;;;;;;4971490;28;20428;-66
2023/01/03 04:11:42;;;;;;;9.43;2.80;;;10.30;1.00;;;;;;4971145;28;20432;-66
2023/01/03 04:14:08;;;;;;;7.70;2.37;;;10.30;99.90;;;;;;4971216;28;20918;-65
2023/01/03 04:16:34;;;;;;;2.60;2.03;;;10.30;6.60;;;;;;4971226;28;20494;-66
2023/01/03 04:18:59;;;;;;;9.93;1.80;;;10.30;99.90;;;;;;4971141;28;20228;-63
2023/01/03 04:21:25;;;;;;;1.67;1.40;;;10.30;99.90;;;;;;4968411;28;20709;-63
2023/01/03 04:23:51;;;;;;;2.20;1.73;;;10.30;99.90;;;;;;4970851;28;20637;-63
2023/01/03 04:26:16;;;;;;;2.33;1.83;;;10.30;1.00;;;;;;4970995;28;20182;-64
2023/01/03 04:28:42;;;;;;;2.00;1.80;;;10.20;99.90;;;;;;4971049;28;20398;-63
2023/01/03 04:31:08;;;;;;;3.07;2.30;;;10.10;1.00;;;;;;4969834;28;20169;-64
2023/01/03 04:33:34;;;;;;;3.23;1.80;;;10.10;1.00;;;;;;4970088;28;20182;-64
2023/01/03 04:35:59;;;;;;;1.70;1.60;;;10.20;1.00;;;;;;4971054;28;20296;-64
2023/01/03 04:38:25;;;;;;;2.77;1.80;;;10.20;99.90;;;;;;4970484;28;20341;-66
2023/01/03 04:40:51;;;;;;;6.60;3.50;;;10.20;99.90;;;;;;4970121;28;20537;-65
2023/01/03 04:46:01;;;;;;;3.63;1.90;;;10.30;1.00;;;;;;4965630;28;20561;-65
2023/01/03 04:48:26;;;;;;;2.50;1.90;;;10.40;1.00;;;;;;4969009;28;20432;-65
2023/01/03 04:50:57;;;;;;;3.77;2.17;;;10.40;96.40;;;;;;4968925;28;20660;-64
2023/01/03 04:53:24;;;;;;;3.00;1.83;;;10.30;99.90;;;;;;4967394;28;20174;-64
2023/01/03 04:55:52;;;;;;;1.80;1.50;;;10.20;99.90;;;;;;4969902;28;20424;-65
2023/01/03 04:58:18;;;;;;;3.13;1.70;;;10.00;99.90;;;;;;4971496;28;20433;-64
2023/01/03 05:00:44;;;;;;;1.97;1.60;;;9.90;1.00;;;;;;4970223;28;20409;-65
2023/01/03 05:03:10;;;;;;;2.77;1.90;;;9.80;1.00;;;;;;4971701;28;20397;-65
2023/01/03 05:05:37;;;;;;;2.90;2.30;;;10.00;99.90;;;;;;4971182;28;20488;-65
2023/01/03 05:08:04;;;;;;;3.50;2.80;;;10.10;1.00;;;;;;4971338;28;20788;-66
2023/01/03 05:10:31;;;;;;;10.07;2.50;;;9.80;1.00;;;;;;4970318;28;20428;-67
2023/01/03 05:12:59;;;;;;;2.60;2.33;;;9.80;39.00;;;;;;4970231;28;20430;-66
2023/01/03 05:15:30;;;;;;;3.80;2.20;;;10.00;1.00;;;;;;4949036;28;20441;-66
2023/01/03 05:17:56;;;;;;;5.23;2.17;;;10.10;1.00;;;;;;4967508;28;21064;-66
2023/01/03 05:25:58;;;;;;;4.50;2.20;;;10.10;1.00;;;;;;4970506;28;20467;-66
2023/01/03 05:28:24;;;;;;;2.33;2.13;;;9.90;98.80;;;;;;4953421;28;21017;-66
2023/01/03 05:30:49;;;;;;;2.20;2.00;;;9.90;1.00;;;;;;4966690;28;20432;-66
2023/01/03 05:33:15;;;;;;;2.93;2.30;;;9.90;1.00;;;;;;4970172;28;20658;-67
2023/01/03 05:35:44;;;;;;;5.63;2.43;;;9.90;1.00;;;;;;4968751;28;20295;-66
2023/01/03 05:38:09;;;;;;;3.30;2.80;;;9.90;1.00;;;;;;4965807;28;21099;-66
2023/01/03 05:40:35;;;;;;;2.90;2.20;;;9.90;1.00;;;;;;4968622;28;20441;-66
2023/01/03 05:43:00;;;;;;;4.50;1.97;;;9.90;1.00;;;;;;4972894;28;20189;-66
2023/01/03 05:45:26;;;;;;;2.67;2.07;;;10.00;1.00;;;;;;4969746;28;20641;-66
2023/01/03 05:47:52;;;;;;;3.70;2.57;;;10.00;1.00;;;;;;4973497;28;20204;-66
2023/01/03 05:50:18;;;;;;;3.20;2.20;;;10.00;1.00;;;;;;4971530;28;20178;-66
2023/01/03 05:52:43;;;;;;;4.03;2.20;;;9.90;1.00;;;;;;4973169;28;20229;-65
2023/01/03 05:55:09;;;;;;;4.53;2.33;;;10.00;1.00;;;;;;4971019;28;20544;-66
2023/01/03 05:57:35;;;;;;;2.77;2.10;;;10.00;1.00;;;;;;4971929;28;20695;-66
2023/01/03 06:00:01;;;;;;;6.97;2.27;;;10.00;1.00;;;;;;4972435;28;20184;-66
2023/01/03 06:02:27;;;;;;;2.20;1.73;;;10.00;1.00;;;;;;4969770;28;20189;-66
2023/01/03 06:04:53;;;;;;;3.10;2.10;;;10.00;99.90;;;;;;4972949;28;20468;-66
2023/01/03 06:07:19;;;;;;;6.83;2.60;;;10.00;1.00;;;;;;4973313;28;20271;-65
2023/01/03 06:09:44;;;;;;;2.80;2.13;;;10.00;99.90;;;;;;4973328;28;20189;-65
2023/01/03 06:12:10;;;;;;;4.27;2.77;;;10.10;1.00;;;;;;4971857;28;20193;-65
2023/01/03 06:14:36;;;;;;;8.37;2.73;;;10.00;99.90;;;;;;4972622;28;20188;-65
2023/01/03 06:19:46;;;;;;;2.43;2.10;;;10.00;1.00;;;;;;4972574;28;20244;-65
2023/01/03 06:22:11;;;;;;;5.23;2.90;;;9.80;99.90;;;;;;4971628;28;20440;-66
2023/01/03 06:24:37;;;;;;;3.97;2.67;;;9.80;99.90;;;;;;4954969;28;20217;-65
2023/01/03 06:27:03;;;;;;;2.57;2.37;;;9.80;99.90;;;;;;4972042;28;20272;-65
2023/01/03 06:29:28;;;;;;;7.53;3.20;;;9.90;15.30;;;;;;4972051;28;20212;-65
2023/01/03 06:31:54;;;;;;;2.80;2.23;;;9.90;1.00;;;;;;4972077;28;20190;-65
2023/01/03 06:34:20;;;;;;;4.73;2.43;;;9.80;99.90;;;;;;4972187;28;20177;-65
2023/01/03 06:36:45;;;;;;;5.87;2.37;;;9.80;1.00;;;;;;4971990;28;20663;-66
2023/01/03 06:39:11;;;;;;;4.57;2.23;;;9.80;85.90;;;;;;4972910;28;20573;-65
2023/01/03 06:41:37;;;;;;;3.97;2.40;;;9.80;1.00;;;;;;4971315;28;20725;-65
2023/01/03 06:44:02;;;;;;;5.63;2.10;;;9.90;1.00;;;;;;4970437;28;20220;-64
2023/01/03 06:54:54;;;;;;;7.23;3.97;;;9.70;1.00;;;;;;4968517;28;20525;-65
2023/01/03 06:57:19;;;;;;;5.83;3.13;;;9.70;1.00;;;;;;4972146;28;20872;-66
2023/01/03 06:59:45;;;;;;;4.00;3.17;;;9.70;1.00;;;;;;4973091;28;20638;-65
2023/01/03 07:02:11;;;;;;;9.00;3.43;;;9.80;1.00;;;;;;4972562;28;20658;-65
2023/01/03 07:04:36;;;;;;;5.00;3.40;;;9.80;99.90;;;;;;4973299;28;20588;-65
2023/01/03 07:07:02;;;;;;;3.53;2.93;;;9.80;99.90;;;;;;4973596;28;20662;-66
2023/01/03 07:09:28;;;;;;;4.07;3.50;;;9.80;99.90;;;;;;4973253;28;20236;-65
2023/01/03 07:11:53;;;;;;;3.87;3.50;;;9.90;99.90;;;;;;4972622;28;20170;-65
2023/01/03 07:14:19;;;;;;;4.70;3.93;;;9.80;99.90;;;;;;4972644;28;20647;-66
2023/01/03 07:16:47;;;;;;;5.67;4.70;;;9.90;99.90;;;;;;4973041;28;20224;-65
2023/01/03 07:19:16;;;;;;;10.40;4.20;;;9.80;99.90;;;;;;4973151;28;20292;-65
2023/01/03 07:21:42;;;;;;;4.10;2.90;;;9.70;1.00;;;;;;4972125;28;20413;-65
2023/01/03 07:24:12;;;;;;;7.90;3.73;;;9.60;99.90;;;;;;4972877;28;20538;-63
2023/01/03 07:26:38;;;;;;;10.10;4.50;;;9.70;1.00;;;;;;4971824;28;20523;-62
2023/01/03 07:29:06;;;;;;;6.53;5.27;;;9.70;1.00;;;;;;4971833;28;20784;-63
2023/01/03 07:31:33;;;;;;;7.03;5.30;;;9.50;99.90;;;;;;4967510;28;20805;-63
2023/01/03 07:33:59;;;;;;;7.90;5.50;;;9.40;39.60;;;;;;4971719;28;20438;-63
2023/01/03 07:36:25;;;;;;;6.37;4.73;;;9.30;99.90;;;;;;4971698;28;20445;-63
2023/01/03 07:38:54;;;;;;;5.73;4.87;;;9.30;99.90;;;;;;4971453;28;20852;-63
2023/01/03 07:41:20;;;;;;;5.73;4.97;;;9.50;99.90;;;;;;4962730;28;20440;-63
2023/01/03 07:43:48;;;;;;;5.73;4.90;;;9.50;1.00;;;;;;4970993;28;20456;-63
2023/01/03 07:46:19;;;;;;;6.83;4.77;;;9.60;1.00;;;;;;4968024;28;20429;-63
2023/01/03 07:48:48;;;;;;;8.53;5.40;;;9.60;1.00;;;;;;4967258;28;20429;-63
2023/01/03 07:51:15;;;;;;;7.00;4.83;;;9.70;99.90;;;;;;4970613;28;20936;-63
2023/01/03 07:53:41;;;;;;;6.60;5.20;;;9.70;99.90;;;;;;4970933;28;20436;-63
2023/01/03 07:56:20;;;;;;;4.57;4.17;;;10.00;99.90;;;;;;4969342;28;20464;-65
2023/01/03 07:58:47;;;;;;;4.90;4.50;;;9.80;1.00;;;;;;4970530;28;20942;-63
2023/01/03 08:01:18;;;;;;;4.43;4.03;;;9.70;99.90;;;;;;4968428;28;20537;-64
2023/01/03 08:03:44;;;;;;;5.37;4.70;;;9.50;1.00;;;;;;4970776;28;21000;-64
2023/01/03 08:06:21;;;;;;;4.40;4.00;;;9.50;99.90;;;;;;4970161;28;20945;-65
2023/01/03 08:13:16;;;;;;;5.83;4.80;;;9.60;99.90;;;;;;4953193;28;20444;-63
2023/01/03 08:14:17;;;;;;;5.23;4.73;;;9.30;1.00;;;;;;4970763;28;20499;-65
2023/01/03 08:16:43;;;;;;;5.47;4.53;;;9.20;11.50;;;;;;4969061;28;20460;-66
2023/01/03 08:19:09;;;;;;;6.40;5.20;;;9.20;13.10;;;;;;4970909;28;20185;-66
2023/01/03 08:21:34;;;;;;;6.13;5.27;;;9.20;99.90;;;;;;4969643;28;20196;-66
2023/01/03 08:24:00;;;;;;;6.57;5.90;;;9.20;99.90;;;;;;4967750;28;20229;-65
2023/01/03 08:26:26;;;;;;;7.57;6.20;;;9.20;1.00;;;;;;4971560;28;20527;-66
2023/01/03 08:28:52;;;;;;;6.97;6.37;;;9.20;95.20;;;;;;4971970;28;20197;-66
2023/01/03 08:31:21;;;;;;;9.60;7.03;;;9.20;99.90;;;;;;4970474;28;20450;-66
2023/01/03 08:33:56;;;;;;;26.57;11.40;;;9.40;1.00;;;;;;4952712;28;20232;-66
2023/01/03 08:36:24;;;;;;;8.83;7.17;;;9.40;1.00;;;;;;4969775;28;20938;-66
2023/01/03 08:39:05;;;;;;;8.50;6.27;;;9.30;1.00;;;;;;4970911;28;20451;-66
2023/01/03 08:41:36;;;;;;;6.60;5.67;;;9.30;1.00;;;;;;4968587;28;20431;-67
2023/01/03 08:44:05;;;;;;;7.67;5.83;;;9.20;99.90;;;;;;4969119;28;20460;-66
2023/01/03 08:46:32;;;;;;;8.40;5.50;;;9.10;34.60;;;;;;4968959;28;20925;-66
2023/01/03 08:48:58;;;;;;;12.60;5.27;;;9.20;1.00;;;;;;4970468;28;20474;-66
2023/01/03 08:51:25;;;;;;;5.23;4.73;;;9.10;99.90;;;;;;4967259;28;20429;-65
2023/01/03 08:53:51;;;;;;;5.20;4.60;;;9.00;99.90;;;;;;4969094;28;20437;-66
2023/01/03 08:56:20;;;;;;;9.63;5.70;;;8.80;99.90;;;;;;4970484;28;20505;-65
2023/01/03 08:58:46;;;;;;;7.07;5.40;;;9.00;99.90;;;;;;4969885;28;20466;-66
2023/01/03 09:01:13;;;;;;;5.63;4.50;;;9.00;37.30;;;;;;4965690;28;20861;-65
2023/01/03 09:03:39;;;;;;;11.47;5.10;;;9.20;1.00;;;;;;4965549;28;20186;-66
2023/01/03 09:06:05;;;;;;;7.83;4.40;;;9.30;1.00;;;;;;4969559;28;20952;-66
2023/01/03 09:08:32;;;;;;;4.93;4.17;;;9.40;1.00;;;;;;4970204;28;20206;-66
2023/01/03 09:10:58;;;;;;;4.30;3.73;;;9.30;1.00;;;;;;4975932;28;20424;-67
2023/01/03 09:13:23;;;;;;;4.53;3.50;;;9.50;99.90;;;;;;4970794;28;20420;-66
2023/01/03 09:15:49;;;;;;;12.90;5.17;;;9.50;1.00;;;;;;4970688;28;20238;-67
2023/01/03 09:18:15;;;;;;;5.33;3.07;;;9.30;99.90;;;;;;4966825;28;20209;-66
2023/01/03 09:20:41;;;;;;;11.10;4.43;;;9.30;1.00;;;;;;4965773;28;20568;-67
2023/01/03 09:23:07;;;;;;;7.40;4.20;;;9.30;99.90;;;;;;4969455;28;20173;-66
2023/01/03 09:25:32;;;;;;;5.30;4.80;;;9.30;1.00;;;;;;4966751;28;20568;-66
2023/01/03 09:27:58;;;;;;;9.47;5.40;;;9.50;34.80;;;;;;4971125;28;20206;-66
2023/01/03 09:30:24;;;;;;;4.60;3.67;;;9.80;99.90;;;;;;4970006;28;20245;-66
2023/01/03 09:32:50;;;;;;;23.60;8.17;;;10.00;1.00;;;;;;4970595;28;20173;-67
2023/01/03 09:35:16;;;;;;;9.10;4.80;;;9.80;99.90;;;;;;4970819;28;20178;-66
2023/01/03 09:37:42;;;;;;;6.03;5.03;;;9.80;1.00;;;;;;4970715;28;20930;-66
2023/01/03 09:40:08;;;;;;;8.63;4.20;;;9.80;1.00;;;;;;4970637;28;20421;-66
2023/01/03 09:45:26;;;;;;;9.23;4.17;;;9.40;1.00;;;;;;4951140;28;20467;-66
2023/01/03 09:47:53;;;;;;;12.83;6.30;;;9.10;1.00;;;;;;4958943;28;20433;-66
2023/01/03 09:50:22;;;;;;;5.97;4.97;;;9.20;99.90;;;;;;4970285;28;20429;-66
2023/01/03 10:04:28;;;;;;;9.60;4.33;;;10.40;1.00;;;;;;4980511;28;20464;-65
2023/01/03 10:07:12;;;;;;;6.57;3.60;;;10.40;99.90;;;;;;4982562;28;20652;-64
2023/01/03 10:09:58;;;;;;;4.23;3.43;;;10.10;1.00;;;;;;4974257;28;20647;-64
2023/01/03 10:12:55;;;;;;;9.23;3.90;;;10.00;1.00;;;;;;4951868;28;20444;-65
2023/01/03 10:15:34;;;;;;;4.20;3.80;;;10.70;99.90;;;;;;4972632;28;20451;-65
2023/01/03 10:18:30;;;;;;;3.57;3.10;;;10.20;99.90;;;;;;4985528;28;20444;-65
2023/01/03 10:21:19;;;;;;;7.93;3.67;;;10.00;1.00;;;;;;4969299;28;20425;-66
2023/01/03 10:23:47;;;;;;;12.23;4.80;;;9.70;99.90;;;;;;4965744;28;20528;-66
2023/01/03 10:26:12;;;;;;;54.57;8.90;;;10.00;1.00;;;;;;4970526;28;20429;-65
2023/01/03 10:28:43;;;;;;;13.67;4.60;;;10.20;99.90;;;;;;4981068;28;20511;-65
2023/01/03 10:31:46;;;;;;;5.10;3.80;;;10.40;3.10;;;;;;4968417;28;20221;-64
2023/01/03 10:34:11;;;;;;;3.17;2.87;;;9.80;99.90;;;;;;4972609;28;20420;-65
2023/01/03 10:36:37;;;;;;;5.00;4.47;;;10.00;99.90;;;;;;4973584;28;20435;-64
2023/01/03 10:39:09;;;;;;;6.73;3.97;;;10.00;99.90;;;;;;4967238;28;20294;-65
2023/01/03 10:41:45;;;;;;;3.83;3.50;;;9.90;99.90;;;;;;4964521;28;20189;-65
2023/01/03 10:44:37;;;;;;;5.87;4.13;;;9.80;99.90;;;;;;4969379;28;20518;-66
2023/01/03 10:47:16;;;;;;;7.43;4.23;;;9.80;1.00;;;;;;4969730;28;20815;-64
2023/01/03 10:49:45;;;;;;;7.90;4.10;;;10.20;99.90;;;;;;4970142;28;20941;-66
2023/01/03 10:52:21;;;;;;;7.87;4.40;;;10.60;1.00;;;;;;4971862;28;20447;-68
2023/01/03 10:54:58;;;;;;;5.53;4.10;;;10.80;1.00;;;;;;4971765;28;20606;-68
2023/01/03 10:57:47;;;;;;;6.70;4.30;;;10.90;1.00;;;;;;4970558;28;20495;-65
2023/01/03 11:00:21;;;;;;;16.37;5.80;;;10.40;1.00;;;;;;4970355;28;20528;-67
2023/01/03 11:02:48;;;;;;;7.33;3.83;;;10.50;1.00;;;;;;4970944;28;20432;-65
2023/01/03 11:05:19;;;;;;;10.50;5.77;;;10.50;1.00;;;;;;4978406;28;20467;-66
2023/01/03 11:07:54;;;;;;;53.93;8.17;;;10.60;1.00;;;;;;4972353;28;20480;-65
2023/01/03 11:10:23;;;;;;;10.20;4.40;;;10.90;1.00;;;;;;4973942;28;20429;-66
2023/01/03 11:12:49;;;;;;;4.90;4.27;;;11.10;99.90;;;;;;4972722;28;20457;-65
2023/01/03 11:15:17;;;;;;;4.50;3.60;;;10.80;99.90;;;;;;4953637;28;21300;-66
2023/01/03 11:17:54;;;;;;;4.40;4.00;;;10.40;99.90;;;;;;4972780;28;20205;-68
2023/01/03 11:20:20;;;;;;;12.80;4.93;;;10.20;1.00;;;;;;4966866;28;20471;-68
2023/01/03 11:22:55;;;;;;;4.70;4.30;;;10.10;1.00;;;;;;4970517;28;20433;-69
2023/01/03 11:25:36;;;;;;;9.67;5.90;;;10.30;1.00;;;;;;4967269;28;20575;-68
2023/01/03 11:28:16;;;;;;;5.10;4.07;;;10.30;1.00;;;;;;4950806;28;20463;-68
2023/01/03 11:31:03;;;;;;;5.40;4.10;;;10.30;1.00;;;;;;4968079;28;20439;-68
2023/01/03 11:33:38;;;;;;;47.03;8.93;;;10.00;1.00;;;;;;4968004;28;20453;-68
2023/01/03 11:36:09;;;;;;;19.27;6.53;;;10.30;1.00;;;;;;4965895;28;20520;-68
2023/01/03 11:39:13;;;;;;;7.43;4.73;;;10.30;1.00;;;;;;4969845;28;20452;-67
2023/01/03 11:42:03;;;;;;;43.03;9.80;;;10.20;1.00;;;;;;4952588;28;20447;-68
2023/01/03 11:44:56;;;;;;;9.50;4.80;;;10.60;1.00;;;;;;4969528;28;20469;-67
2023/01/03 11:47:49;;;;;;;9.37;4.50;;;10.80;99.90;;;;;;4966623;28;20976;-66
2023/01/03 11:50:31;;;;;;;7.20;4.43;;;10.60;99.90;;;;;;4968713;28;20458;-66
2023/01/03 11:53:25;;;;;;;4.57;4.07;;;10.50;1.00;;;;;;4967534;28;20421;-67
2023/01/03 11:56:04;;;;;;;5.73;4.20;;;10.20;1.00;;;;;;4970031;28;20468;-67
2023/01/03 11:58:49;;;;;;;15.13;5.10;;;10.20;1.00;;;;;;4969710;28;20551;-66
2023/01/03 12:01:24;;;;;;;11.43;4.70;;;10.50;1.00;;;;;;4969744;28;20443;-65
2023/01/03 12:51:18;;;;;;;15.80;9.97;;;;;;;;;;4982555;28;66083;-69
2023/01/03 12:53:56;;;;;;;21.83;10.47;;;;;;;;;;5003417;28;59053;-69
2023/01/03 12:56:39;;;;;;;16.47;8.43;;;;;;;;;;5021241;28;20818;-68
2023/01/03 12:59:12;;;;;;;16.33;8.73;;;;;;;;;;5000857;28;76592;-67
2023/01/03 13:06:01;;;;;;;13.33;8.23;;;;;;;;;;5036658;27;20613;-65
2023/01/03 13:08:52;;;;;;;16.30;8.50;;;;;;;;;;5017975;28;20470;-66
2023/01/03 13:11:29;;;;;;;17.27;8.73;;;;;;;;;;5020010;28;20430;-67
2023/01/03 13:17:16;;;;;;;5.33;4.80;;;;;;;;;;5065268;28;20581;-67
2023/01/03 13:19:55;;;;;;;6.23;5.07;;;;;;;;;;5043718;28;20448;-67
2023/01/03 13:22:49;;;;;;;9.50;5.13;;;;;;;;;;5034779;28;20472;-67
2023/01/03 13:25:40;;;;;;;6.80;5.30;;;;;;;;;;5024953;28;20499;-66
2023/01/03 13:28:28;;;;;;;19.67;5.43;;;;;;;;;;5024954;28;20502;-67
2023/01/03 13:31:18;;;;;;;5.97;5.23;;;;;;;;;;5010341;28;20439;-67
2023/01/03 13:33:54;;;;;;;14.43;5.33;;;;;;;;;;5017641;28;20438;-67
2023/01/03 13:36:21;;;;;;;23.03;9.77;;;;;;;;;;5018090;28;20903;-68
2023/01/03 13:38:47;;;;;;;42.57;10.57;;;;;;;;;;5022706;28;20496;-67
2023/01/03 13:41:33;;;;;;;18.70;7.67;;;;;;;;;;5014867;28;20430;-69
2023/01/03 13:44:16;;;;;;;14.93;6.90;;;;;;;;;;5020634;28;20274;-67
2023/01/03 13:46:42;;;;;;;46.30;8.33;;;;;;;;;;5023114;28;20446;-66
2023/01/03 13:49:18;;;;;;;6.30;5.70;;;;;;;;;;5022708;28;20936;-66
2023/01/03 13:51:49;;;;;;;56.40;10.60;;;;;;;;;;5011986;28;20183;-68
2023/01/03 13:54:14;;;;;;;30.13;8.07;;;;;;;;;;5041355;28;20476;-68
2023/01/03 13:56:43;;;;;;;5.20;4.70;;;;;;;;;;5042705;28;20488;-66
2023/01/03 13:59:17;;;;;;;36.83;8.77;;;;;;;;;;5025178;28;20199;-67
2023/01/03 14:02:19;;;;;;;9.13;5.70;;;;;;;;;;5035331;28;20449;-67
2023/01/03 14:05:02;;;;;;;19.73;6.73;;;;;;;;;;5034419;28;20433;-66
2023/01/03 14:07:50;;;;;;;14.00;5.83;;;;;;;;;;5042354;28;20463;-68
2023/01/03 14:10:25;;;;;;;6.30;5.43;;;;;;;;;;5043227;28;20444;-68
2023/01/03 14:13:11;;;;;;;7.37;4.90;;;;;;;;;;5040733;28;20440;-68
2023/01/03 14:15:36;;;;;;;9.57;6.60;;;;;;;;;;5031575;28;20485;-66
2023/01/03 14:18:14;;;;;;;6.17;5.40;;;;;;;;;;5035647;28;20457;-68
2023/01/03 14:20:45;;;;;;;10.83;5.77;;;;;;;;;;5022350;28;20600;-69
2023/01/03 14:23:14;;;;;;;6.00;5.40;;;;;;;;;;5038813;28;21595;-66
2023/01/03 14:25:42;;;;;;;7.30;6.13;;;;;;;;;;5038917;28;20520;-67
2023/01/03 14:28:21;;;;;;;8.13;5.47;;;;;;;;;;5018079;28;20461;-69
2023/01/03 14:31:07;;;;;;;10.97;5.17;;;;;;;;;;5018585;28;20438;-68
2023/01/03 14:33:40;;;;;;;80.23;15.43;;;;;;;;;;5024676;28;20442;-69
2023/01/03 14:36:14;;;;;;;26.13;7.83;;;;;;;;;;5031239;28;20970;-68
2023/01/03 14:38:49;;;;;;;7.60;5.30;;;;;;;;;;5031550;28;20948;-67
2023/01/03 14:41:36;;;;;;;21.77;6.63;;;;;;;;;;5018321;28;20578;-68
2023/01/03 14:44:08;;;;;;;13.30;6.40;;;;;;;;;;5012595;28;20431;-68
2023/01/03 14:46:35;;;;;;;73.63;12.90;;;;;;;;;;5031051;28;20409;-69
2023/01/03 14:49:04;;;;;;;8.33;6.10;;;;;;;;;;5031547;28;20497;-68
2023/01/03 14:51:35;;;;;;;11.70;6.33;;;;;;;;;;5030901;28;20468;-69
2023/01/03 14:54:02;;;;;;;24.03;7.60;;;;;;;;;;5030820;28;20444;-68
2023/01/03 14:56:29;;;;;;;7.20;6.07;;;;;;;;;;5031346;28;20498;-69
2023/01/03 14:58:55;;;;;;;20.50;7.73;;;;;;;;;;5031406;28;20892;-68
2023/01/03 15:01:22;;;;;;;7.60;5.63;;;;;;;;;;5029864;28;20418;-68
2023/01/03 15:03:48;;;;;;;6.90;6.20;;;;;;;;;;5031261;28;20422;-68
2023/01/03 15:06:18;;;;;;;6.27;5.63;;;;;;;;;;5024158;28;21008;-67
2023/01/03 15:08:45;;;;;;;14.37;8.47;;;;;;;;;;5022061;28;20993;-68
2023/01/03 15:11:12;;;;;;;10.10;6.37;;;;;;;;;;5030384;28;20437;-67
2023/01/03 15:13:46;;;;;;;15.90;6.90;;;;;;;;;;5031402;28;20895;-68
2023/01/03 15:16:21;;;;;;;28.23;7.63;;;;;;;;;;5030866;28;20462;-68
2023/01/03 15:18:46;;;;;;;14.03;6.30;;;;;;;;;;5029845;28;20505;-67
2023/01/03 15:21:16;;;;;;;16.53;8.57;;;;;;;;;;5027915;28;20581;-68
2023/01/03 15:23:45;;;;;;;9.50;5.60;;;;;;;;;;5026154;28;20172;-68
2023/01/03 15:26:35;;;;;;;11.13;6.50;;;;;;;;;;5030012;28;20965;-69
2023/01/03 15:29:07;;;;;;;13.97;6.80;;;;;;;;;;5061602;22;21171;-72